sensor_id;sensor_type;location;lat;lon;timestamp;P1;durP1;ratioP1;P2;durP2;ratioP2
28296;SDS011;62078;49.366;8.172;2023-09-07T18:52:05;18.92;;;4.28;;
28296;SDS011;62078;49.366;8.172;2023-09-07T18:54:30;8.68;;;3.22;;
28296;SDS011;62078;49.366;8.172;2023-09-07T18:56:56;8.95;;;3.58;;
28296;SDS011;62078;49.366;8.172;2023-09-07T18:59:22;7.00;;;4.05;;
28296;SDS011;62078;49.366;8.172;2023-09-07T19:01:48;6.20;;;2.88;;
28296;SDS011;62078;49.366;8.172;2023-09-07T19:04:13;8.63;;;3.35;;
28296;SDS011;62078;49.366;8.172;2023-09-07T19:06:39;8.70;;;3.80;;
28296;SDS011;62078;49.366;8.172;2023-09-07T19:09:05;7.25;;;3.60;;
28296;SDS011;62078;49.366;8.172;2023-09-07T19:11:32;7.60;;;3.30;;
28296;SDS011;62078;49.366;8.172;2023-09-07T19:13:58;10.70;;;3.53;;
28296;SDS011;62078;49.366;8.172;2023-09-07T19:16:24;9.40;;;3.75;;
28296;SDS011;62078;49.366;8.172;2023-09-07T19:18:50;16.55;;;4.15;;
28296;SDS011;62078;49.366;8.172;2023-09-07T19:21:16;8.70;;;4.07;;
28296;SDS011;62078;49.366;8.172;2023-09-07T19:23:42;7.65;;;3.63;;
28296;SDS011;62078;49.366;8.172;2023-09-07T19:26:25;14.27;;;3.83;;
28296;SDS011;62078;49.366;8.172;2023-09-07T19:28:52;11.57;;;3.50;;
28296;SDS011;62078;49.366;8.172;2023-09-07T19:31:17;7.90;;;4.00;;
28296;SDS011;62078;49.366;8.172;2023-09-07T19:33:43;9.20;;;4.20;;
28296;SDS011;62078;49.366;8.172;2023-09-07T19:36:12;11.18;;;4.55;;
28296;SDS011;62078;49.366;8.172;2023-09-07T19:38:38;14.32;;;4.55;;
28296;SDS011;62078;49.366;8.172;2023-09-07T19:41:03;12.82;;;4.95;;
28296;SDS011;62078;49.366;8.172;2023-09-07T19:43:29;9.30;;;4.65;;
28296;SDS011;62078;49.366;8.172;2023-09-07T19:45:55;10.80;;;4.45;;
28296;SDS011;62078;49.366;8.172;2023-09-07T19:48:20;10.90;;;4.53;;
28296;SDS011;62078;49.366;8.172;2023-09-07T19:50:46;7.88;;;4.10;;
28296;SDS011;62078;49.366;8.172;2023-09-07T19:53:12;6.60;;;3.83;;
28296;SDS011;62078;49.366;8.172;2023-09-07T19:55:37;8.68;;;4.30;;
28296;SDS011;62078;49.366;8.172;2023-09-07T19:58:03;10.88;;;3.65;;
28296;SDS011;62078;49.366;8.172;2023-09-07T20:00:29;7.63;;;3.80;;
28296;SDS011;62078;49.366;8.172;2023-09-07T20:02:54;7.53;;;4.53;;
28296;SDS011;62078;49.366;8.172;2023-09-07T20:05:22;8.85;;;3.47;;
28296;SDS011;62078;49.366;8.172;2023-09-07T20:07:48;9.00;;;4.13;;
28296;SDS011;62078;49.366;8.172;2023-09-07T20:10:15;9.77;;;4.43;;
28296;SDS011;62078;49.366;8.172;2023-09-07T20:12:42;7.50;;;3.78;;
28296;SDS011;62078;49.366;8.172;2023-09-07T20:15:08;8.68;;;3.88;;
28296;SDS011;62078;49.366;8.172;2023-09-07T20:17:34;9.90;;;4.07;;
28296;SDS011;62078;49.366;8.172;2023-09-07T20:20:00;10.68;;;4.32;;
28296;SDS011;62078;49.366;8.172;2023-09-07T20:22:25;8.00;;;4.10;;
28296;SDS011;62078;49.366;8.172;2023-09-07T20:24:53;7.78;;;3.63;;
28296;SDS011;62078;49.366;8.172;2023-09-07T20:27:20;7.80;;;3.88;;
28296;SDS011;62078;49.366;8.172;2023-09-07T20:29:50;6.15;;;3.50;;
28296;SDS011;62078;49.366;8.172;2023-09-07T20:32:16;9.40;;;3.65;;
28296;SDS011;62078;49.366;8.172;2023-09-07T20:34:41;6.55;;;3.35;;
28296;SDS011;62078;49.366;8.172;2023-09-07T20:37:07;6.90;;;3.72;;
28296;SDS011;62078;49.366;8.172;2023-09-07T20:39:33;6.32;;;3.72;;
28296;SDS011;62078;49.366;8.172;2023-09-07T20:41:59;8.40;;;3.42;;
28296;SDS011;62078;49.366;8.172;2023-09-07T20:44:26;5.43;;;3.00;;
28296;SDS011;62078;49.366;8.172;2023-09-07T20:46:52;5.93;;;3.38;;
28296;SDS011;62078;49.366;8.172;2023-09-07T20:49:17;6.03;;;3.30;;
28296;SDS011;62078;49.366;8.172;2023-09-07T20:51:45;6.53;;;3.78;;
28296;SDS011;62078;49.366;8.172;2023-09-07T20:54:10;5.15;;;3.13;;
28296;SDS011;62078;49.366;8.172;2023-09-07T20:56:37;7.53;;;4.00;;
28296;SDS011;62078;49.366;8.172;2023-09-07T20:59:02;6.75;;;3.50;;
28296;SDS011;62078;49.366;8.172;2023-09-07T21:01:28;7.30;;;3.72;;
28296;SDS011;62078;49.366;8.172;2023-09-07T21:03:54;5.68;;;3.42;;
28296;SDS011;62078;49.366;8.172;2023-09-07T21:06:20;7.20;;;3.45;;
28296;SDS011;62078;49.366;8.172;2023-09-07T21:08:46;8.90;;;3.42;;
28296;SDS011;62078;49.366;8.172;2023-09-07T21:11:12;5.68;;;3.67;;
28296;SDS011;62078;49.366;8.172;2023-09-07T21:13:38;6.40;;;3.33;;
28296;SDS011;62078;49.366;8.172;2023-09-07T21:16:04;4.95;;;3.33;;
28296;SDS011;62078;49.366;8.172;2023-09-07T21:18:30;7.30;;;3.50;;
28296;SDS011;62078;49.366;8.172;2023-09-07T21:20:56;5.40;;;3.28;;
28296;SDS011;62078;49.366;8.172;2023-09-07T21:23:22;7.15;;;3.58;;
28296;SDS011;62078;49.366;8.172;2023-09-07T21:25:48;5.13;;;3.20;;
28296;SDS011;62078;49.366;8.172;2023-09-07T21:28:14;8.98;;;3.20;;
28296;SDS011;62078;49.366;8.172;2023-09-07T21:30:40;7.03;;;3.60;;
28296;SDS011;62078;49.366;8.172;2023-09-07T21:33:06;9.27;;;3.78;;
28296;SDS011;62078;49.366;8.172;2023-09-07T21:35:32;6.82;;;3.08;;
28296;SDS011;62078;49.366;8.172;2023-09-07T21:37:57;5.57;;;3.05;;
28296;SDS011;62078;49.366;8.172;2023-09-07T21:40:25;6.85;;;3.30;;
28296;SDS011;62078;49.366;8.172;2023-09-07T21:42:51;6.50;;;3.33;;
28296;SDS011;62078;49.366;8.172;2023-09-07T21:45:17;4.95;;;3.10;;
28296;SDS011;62078;49.366;8.172;2023-09-07T21:47:43;5.32;;;3.42;;
28296;SDS011;62078;49.366;8.172;2023-09-07T21:50:08;7.57;;;3.22;;
28296;SDS011;62078;49.366;8.172;2023-09-07T21:52:35;7.07;;;3.53;;
28296;SDS011;62078;49.366;8.172;2023-09-07T21:55:01;5.15;;;2.90;;
28296;SDS011;62078;49.366;8.172;2023-09-07T21:57:27;5.15;;;3.42;;
28296;SDS011;62078;49.366;8.172;2023-09-07T21:59:53;6.18;;;3.05;;
28296;SDS011;62078;49.366;8.172;2023-09-07T22:02:21;6.32;;;3.13;;
28296;SDS011;62078;49.366;8.172;2023-09-07T22:04:49;5.22;;;3.15;;
28296;SDS011;62078;49.366;8.172;2023-09-07T22:07:15;7.43;;;2.90;;
28296;SDS011;62078;49.366;8.172;2023-09-07T22:09:41;4.68;;;2.80;;
28296;SDS011;62078;49.366;8.172;2023-09-07T22:12:07;5.45;;;3.35;;
28296;SDS011;62078;49.366;8.172;2023-09-07T22:14:33;5.68;;;3.22;;
28296;SDS011;62078;49.366;8.172;2023-09-07T22:17:00;5.05;;;2.85;;
28296;SDS011;62078;49.366;8.172;2023-09-07T22:19:25;4.72;;;3.17;;
28296;SDS011;62078;49.366;8.172;2023-09-07T22:21:52;4.40;;;2.75;;
28296;SDS011;62078;49.366;8.172;2023-09-07T22:24:18;5.78;;;3.28;;
28296;SDS011;62078;49.366;8.172;2023-09-07T22:26:43;4.97;;;3.10;;
28296;SDS011;62078;49.366;8.172;2023-09-07T22:29:09;4.70;;;3.25;;
28296;SDS011;62078;49.366;8.172;2023-09-07T22:31:36;5.47;;;2.90;;
28296;SDS011;62078;49.366;8.172;2023-09-07T22:34:02;4.75;;;2.85;;
28296;SDS011;62078;49.366;8.172;2023-09-07T22:36:28;6.03;;;3.30;;
28296;SDS011;62078;49.366;8.172;2023-09-07T22:38:54;5.18;;;3.22;;
28296;SDS011;62078;49.366;8.172;2023-09-07T22:41:21;6.47;;;3.38;;
28296;SDS011;62078;49.366;8.172;2023-09-07T22:43:48;5.15;;;2.72;;
28296;SDS011;62078;49.366;8.172;2023-09-07T22:46:15;4.55;;;3.05;;
28296;SDS011;62078;49.366;8.172;2023-09-07T22:48:41;6.05;;;3.15;;
28296;SDS011;62078;49.366;8.172;2023-09-07T22:51:07;4.50;;;3.03;;
28296;SDS011;62078;49.366;8.172;2023-09-07T22:53:33;6.78;;;3.35;;
28296;SDS011;62078;49.366;8.172;2023-09-07T22:56:00;4.78;;;3.10;;
28296;SDS011;62078;49.366;8.172;2023-09-07T22:58:27;5.30;;;3.17;;
28296;SDS011;62078;49.366;8.172;2023-09-07T23:00:52;5.10;;;3.00;;
28296;SDS011;62078;49.366;8.172;2023-09-07T23:03:19;5.47;;;3.25;;
28296;SDS011;62078;49.366;8.172;2023-09-07T23:05:46;3.50;;;2.45;;
28296;SDS011;62078;49.366;8.172;2023-09-07T23:08:12;4.00;;;2.65;;
28296;SDS011;62078;49.366;8.172;2023-09-07T23:10:39;4.05;;;2.92;;
28296;SDS011;62078;49.366;8.172;2023-09-07T23:13:05;5.05;;;3.20;;
28296;SDS011;62078;49.366;8.172;2023-09-07T23:15:33;5.07;;;2.88;;
28296;SDS011;62078;49.366;8.172;2023-09-07T23:18:00;5.25;;;2.83;;
28296;SDS011;62078;49.366;8.172;2023-09-07T23:20:26;4.90;;;3.03;;
28296;SDS011;62078;49.366;8.172;2023-09-07T23:22:52;5.15;;;3.00;;
28296;SDS011;62078;49.366;8.172;2023-09-07T23:25:18;6.03;;;2.88;;
28296;SDS011;62078;49.366;8.172;2023-09-07T23:27:44;7.35;;;3.40;;
28296;SDS011;62078;49.366;8.172;2023-09-07T23:30:10;4.88;;;3.30;;
28296;SDS011;62078;49.366;8.172;2023-09-07T23:32:37;5.35;;;2.90;;
28296;SDS011;62078;49.366;8.172;2023-09-07T23:35:05;4.65;;;3.20;;
28296;SDS011;62078;49.366;8.172;2023-09-07T23:37:33;4.38;;;2.42;;
28296;SDS011;62078;49.366;8.172;2023-09-07T23:40:00;6.18;;;3.10;;
28296;SDS011;62078;49.366;8.172;2023-09-07T23:42:31;6.53;;;3.28;;
28296;SDS011;62078;49.366;8.172;2023-09-07T23:44:57;5.55;;;3.22;;
28296;SDS011;62078;49.366;8.172;2023-09-07T23:47:23;5.68;;;3.10;;
28296;SDS011;62078;49.366;8.172;2023-09-07T23:49:48;6.65;;;3.30;;
28296;SDS011;62078;49.366;8.172;2023-09-07T23:52:14;5.38;;;3.28;;
28296;SDS011;62078;49.366;8.172;2023-09-07T23:54:40;4.72;;;2.95;;
28296;SDS011;62078;49.366;8.172;2023-09-07T23:57:06;4.32;;;2.72;;
28296;SDS011;62078;49.366;8.172;2023-09-07T23:59:32;4.63;;;2.90;;
